sensor_id;sensor_type;location;lat;lon;timestamp;P1;durP1;ratioP1;P2;durP2;ratioP2
14094;SDS011;18096;48.142;16.290;2022-12-07T00:00:40;4.40;;;3.60;;
14094;SDS011;18096;48.142;16.290;2022-12-07T00:03:05;3.88;;;3.00;;
14094;SDS011;18096;48.142;16.290;2022-12-07T00:05:31;6.03;;;3.50;;
14094;SDS011;18096;48.142;16.290;2022-12-07T00:07:57;3.23;;;2.90;;
14094;SDS011;18096;48.142;16.290;2022-12-07T00:10:22;4.05;;;3.35;;
14094;SDS011;18096;48.142;16.290;2022-12-07T00:12:48;3.10;;;2.90;;
14094;SDS011;18096;48.142;16.290;2022-12-07T00:15:15;3.87;;;3.57;;
14094;SDS011;18096;48.142;16.290;2022-12-07T00:17:40;7.30;;;3.50;;
14094;SDS011;18096;48.142;16.290;2022-12-07T00:20:06;5.95;;;3.72;;
14094;SDS011;18096;48.142;16.290;2022-12-07T00:22:32;3.60;;;3.30;;
14094;SDS011;18096;48.142;16.290;2022-12-07T00:24:58;4.68;;;4.20;;
14094;SDS011;18096;48.142;16.290;2022-12-07T00:27:23;4.27;;;3.87;;
14094;SDS011;18096;48.142;16.290;2022-12-07T00:29:49;4.93;;;4.53;;
14094;SDS011;18096;48.142;16.290;2022-12-07T00:32:14;5.35;;;4.65;;
14094;SDS011;18096;48.142;16.290;2022-12-07T00:34:40;5.60;;;5.00;;
14094;SDS011;18096;48.142;16.290;2022-12-07T00:37:06;6.27;;;5.20;;
14094;SDS011;18096;48.142;16.290;2022-12-07T00:39:31;6.28;;;5.43;;
14094;SDS011;18096;48.142;16.290;2022-12-07T00:41:57;6.10;;;4.67;;
14094;SDS011;18096;48.142;16.290;2022-12-07T00:44:22;5.83;;;5.33;;
14094;SDS011;18096;48.142;16.290;2022-12-07T00:46:48;7.55;;;5.90;;
14094;SDS011;18096;48.142;16.290;2022-12-07T00:49:14;6.10;;;5.50;;
14094;SDS011;18096;48.142;16.290;2022-12-07T00:51:39;7.47;;;5.17;;
14094;SDS011;18096;48.142;16.290;2022-12-07T00:54:05;7.28;;;6.03;;
14094;SDS011;18096;48.142;16.290;2022-12-07T00:56:30;8.57;;;6.00;;
14094;SDS011;18096;48.142;16.290;2022-12-07T00:58:57;7.10;;;5.90;;
14094;SDS011;18096;48.142;16.290;2022-12-07T01:01:28;6.20;;;5.60;;
14094;SDS011;18096;48.142;16.290;2022-12-07T01:03:55;6.05;;;5.45;;
14094;SDS011;18096;48.142;16.290;2022-12-07T01:06:21;7.90;;;6.22;;
14094;SDS011;18096;48.142;16.290;2022-12-07T01:08:48;8.00;;;5.15;;
14094;SDS011;18096;48.142;16.290;2022-12-07T01:11:15;7.53;;;6.10;;
14094;SDS011;18096;48.142;16.290;2022-12-07T01:13:43;8.30;;;6.32;;
14094;SDS011;18096;48.142;16.290;2022-12-07T01:16:10;11.17;;;5.97;;
14094;SDS011;18096;48.142;16.290;2022-12-07T01:18:38;7.65;;;6.18;;
14094;SDS011;18096;48.142;16.290;2022-12-07T01:21:05;8.38;;;6.60;;
14094;SDS011;18096;48.142;16.290;2022-12-07T01:23:39;8.30;;;5.85;;
14094;SDS011;18096;48.142;16.290;2022-12-07T01:26:07;8.17;;;6.17;;
14094;SDS011;18096;48.142;16.290;2022-12-07T01:28:35;14.55;;;7.10;;
14094;SDS011;18096;48.142;16.290;2022-12-07T01:31:03;8.27;;;7.15;;
14094;SDS011;18096;48.142;16.290;2022-12-07T01:33:34;9.43;;;7.00;;
14094;SDS011;18096;48.142;16.290;2022-12-07T01:36:08;11.05;;;6.93;;
14094;SDS011;18096;48.142;16.290;2022-12-07T01:38:39;9.38;;;6.75;;
14094;SDS011;18096;48.142;16.290;2022-12-07T01:41:05;10.60;;;6.63;;
14094;SDS011;18096;48.142;16.290;2022-12-07T01:43:31;11.60;;;7.30;;
14094;SDS011;18096;48.142;16.290;2022-12-07T01:45:58;9.00;;;7.28;;
14094;SDS011;18096;48.142;16.290;2022-12-07T01:48:27;11.02;;;7.47;;
14094;SDS011;18096;48.142;16.290;2022-12-07T01:51:04;7.78;;;6.80;;
14094;SDS011;18096;48.142;16.290;2022-12-07T01:53:33;10.43;;;7.55;;
14094;SDS011;18096;48.142;16.290;2022-12-07T01:56:02;11.15;;;7.57;;
14094;SDS011;18096;48.142;16.290;2022-12-07T01:58:28;8.40;;;7.50;;
14094;SDS011;18096;48.142;16.290;2022-12-07T02:00:54;10.67;;;7.90;;
14094;SDS011;18096;48.142;16.290;2022-12-07T02:03:53;9.07;;;8.13;;
14094;SDS011;18096;48.142;16.290;2022-12-07T02:06:14;10.60;;;7.63;;
14094;SDS011;18096;48.142;16.290;2022-12-07T02:08:44;10.20;;;7.65;;
14094;SDS011;18096;48.142;16.290;2022-12-07T02:11:10;9.63;;;7.95;;
14094;SDS011;18096;48.142;16.290;2022-12-07T02:13:37;10.15;;;8.38;;
14094;SDS011;18096;48.142;16.290;2022-12-07T02:18:48;10.98;;;7.78;;
14094;SDS011;18096;48.142;16.290;2022-12-07T02:24:13;13.57;;;8.05;;
14094;SDS011;18096;48.142;16.290;2022-12-07T02:32:14;10.50;;;6.90;;
14094;SDS011;18096;48.142;16.290;2022-12-07T02:37:53;8.13;;;7.13;;
14094;SDS011;18096;48.142;16.290;2022-12-07T02:43:35;8.97;;;7.50;;
14094;SDS011;18096;48.142;16.290;2022-12-07T02:46:10;11.15;;;7.05;;
14094;SDS011;18096;48.142;16.290;2022-12-07T02:48:38;9.32;;;6.60;;
14094;SDS011;18096;48.142;16.290;2022-12-07T02:51:06;9.40;;;6.87;;
14094;SDS011;18096;48.142;16.290;2022-12-07T02:53:42;7.60;;;6.17;;
14094;SDS011;18096;48.142;16.290;2022-12-07T03:07:18;10.47;;;7.00;;
14094;SDS011;18096;48.142;16.290;2022-12-07T03:15:10;8.13;;;6.70;;
14094;SDS011;18096;48.142;16.290;2022-12-07T03:17:41;10.05;;;6.68;;
14094;SDS011;18096;48.142;16.290;2022-12-07T03:20:11;9.07;;;6.38;;
14094;SDS011;18096;48.142;16.290;2022-12-07T03:22:40;9.80;;;7.00;;
14094;SDS011;18096;48.142;16.290;2022-12-07T03:25:09;8.65;;;6.20;;
14094;SDS011;18096;48.142;16.290;2022-12-07T03:27:43;11.40;;;6.28;;
14094;SDS011;18096;48.142;16.290;2022-12-07T03:30:12;8.63;;;6.15;;
14094;SDS011;18096;48.142;16.290;2022-12-07T03:35:22;6.68;;;5.97;;
14094;SDS011;18096;48.142;16.290;2022-12-07T03:38:00;8.48;;;5.70;;
14094;SDS011;18096;48.142;16.290;2022-12-07T03:40:35;6.57;;;5.93;;
14094;SDS011;18096;48.142;16.290;2022-12-07T03:43:05;8.40;;;5.90;;
14094;SDS011;18096;48.142;16.290;2022-12-07T03:45:39;7.20;;;5.95;;
14094;SDS011;18096;48.142;16.290;2022-12-07T03:51:06;6.95;;;5.78;;
14094;SDS011;18096;48.142;16.290;2022-12-07T03:53:39;6.43;;;5.40;;
14094;SDS011;18096;48.142;16.290;2022-12-07T03:56:09;7.63;;;5.90;;
14094;SDS011;18096;48.142;16.290;2022-12-07T03:58:36;7.80;;;5.57;;
14094;SDS011;18096;48.142;16.290;2022-12-07T04:01:03;7.20;;;6.00;;
14094;SDS011;18096;48.142;16.290;2022-12-07T04:03:28;7.30;;;5.75;;
14094;SDS011;18096;48.142;16.290;2022-12-07T04:05:54;6.47;;;5.10;;
14094;SDS011;18096;48.142;16.290;2022-12-07T04:08:20;7.13;;;4.80;;
14094;SDS011;18096;48.142;16.290;2022-12-07T04:10:46;6.70;;;5.20;;
14094;SDS011;18096;48.142;16.290;2022-12-07T04:13:12;7.47;;;5.07;;
14094;SDS011;18096;48.142;16.290;2022-12-07T04:15:37;8.05;;;5.95;;
14094;SDS011;18096;48.142;16.290;2022-12-07T04:18:03;8.43;;;5.63;;
14094;SDS011;18096;48.142;16.290;2022-12-07T04:20:28;6.63;;;5.10;;
14094;SDS011;18096;48.142;16.290;2022-12-07T04:22:54;5.93;;;5.32;;
14094;SDS011;18096;48.142;16.290;2022-12-07T04:25:20;6.43;;;5.10;;
14094;SDS011;18096;48.142;16.290;2022-12-07T04:27:45;6.97;;;5.37;;
14094;SDS011;18096;48.142;16.290;2022-12-07T04:30:11;6.60;;;5.03;;
14094;SDS011;18096;48.142;16.290;2022-12-07T04:32:37;5.95;;;5.15;;
14094;SDS011;18096;48.142;16.290;2022-12-07T04:35:03;7.60;;;5.53;;
14094;SDS011;18096;48.142;16.290;2022-12-07T04:37:29;7.57;;;5.37;;
14094;SDS011;18096;48.142;16.290;2022-12-07T04:39:55;11.20;;;5.90;;
14094;SDS011;18096;48.142;16.290;2022-12-07T04:42:21;7.85;;;6.43;;
14094;SDS011;18096;48.142;16.290;2022-12-07T04:44:46;6.60;;;5.23;;
14094;SDS011;18096;48.142;16.290;2022-12-07T04:47:12;6.47;;;5.80;;
14094;SDS011;18096;48.142;16.290;2022-12-07T04:49:37;10.85;;;6.43;;
14094;SDS011;18096;48.142;16.290;2022-12-07T04:52:03;9.60;;;6.20;;
14094;SDS011;18096;48.142;16.290;2022-12-07T04:54:29;6.73;;;5.63;;
14094;SDS011;18096;48.142;16.290;2022-12-07T04:56:55;6.78;;;6.07;;
14094;SDS011;18096;48.142;16.290;2022-12-07T04:59:20;6.28;;;5.35;;
14094;SDS011;18096;48.142;16.290;2022-12-07T05:01:46;7.60;;;6.37;;
14094;SDS011;18096;48.142;16.290;2022-12-07T05:04:12;6.85;;;5.40;;
14094;SDS011;18096;48.142;16.290;2022-12-07T05:06:37;8.18;;;6.10;;
14094;SDS011;18096;48.142;16.290;2022-12-07T05:09:03;10.83;;;5.43;;
14094;SDS011;18096;48.142;16.290;2022-12-07T05:11:29;7.22;;;4.80;;
14094;SDS011;18096;48.142;16.290;2022-12-07T05:14:19;9.07;;;5.72;;
14094;SDS011;18096;48.142;16.290;2022-12-07T05:16:47;5.53;;;4.90;;
14094;SDS011;18096;48.142;16.290;2022-12-07T05:19:14;6.13;;;5.50;;
14094;SDS011;18096;48.142;16.290;2022-12-07T05:21:40;5.57;;;5.05;;
14094;SDS011;18096;48.142;16.290;2022-12-07T05:24:06;5.40;;;4.90;;
14094;SDS011;18096;48.142;16.290;2022-12-07T05:26:34;6.05;;;5.40;;
14094;SDS011;18096;48.142;16.290;2022-12-07T05:29:00;5.30;;;4.80;;
14094;SDS011;18096;48.142;16.290;2022-12-07T05:31:26;5.13;;;4.63;;
14094;SDS011;18096;48.142;16.290;2022-12-07T05:33:52;6.13;;;4.78;;
14094;SDS011;18096;48.142;16.290;2022-12-07T05:36:18;5.53;;;5.03;;
14094;SDS011;18096;48.142;16.290;2022-12-07T05:38:44;8.68;;;5.05;;
14094;SDS011;18096;48.142;16.290;2022-12-07T05:41:12;6.07;;;4.55;;
14094;SDS011;18096;48.142;16.290;2022-12-07T05:43:58;6.55;;;4.65;;
14094;SDS011;18096;48.142;16.290;2022-12-07T05:46:24;5.28;;;4.60;;
14094;SDS011;18096;48.142;16.290;2022-12-07T05:48:49;6.35;;;4.25;;
14094;SDS011;18096;48.142;16.290;2022-12-07T05:51:15;5.15;;;4.50;;
14094;SDS011;18096;48.142;16.290;2022-12-07T05:53:41;5.47;;;4.30;;
14094;SDS011;18096;48.142;16.290;2022-12-07T05:56:07;9.87;;;4.30;;
14094;SDS011;18096;48.142;16.290;2022-12-07T05:58:32;6.45;;;4.32;;
14094;SDS011;18096;48.142;16.290;2022-12-07T06:01:16;6.82;;;4.22;;
14094;SDS011;18096;48.142;16.290;2022-12-07T06:03:42;5.82;;;4.55;;
14094;SDS011;18096;48.142;16.290;2022-12-07T06:06:08;4.75;;;4.35;;
14094;SDS011;18096;48.142;16.290;2022-12-07T06:08:33;5.00;;;4.50;;
14094;SDS011;18096;48.142;16.290;2022-12-07T06:10:59;7.43;;;4.60;;
14094;SDS011;18096;48.142;16.290;2022-12-07T06:13:43;5.00;;;4.13;;
14094;SDS011;18096;48.142;16.290;2022-12-07T06:16:09;4.83;;;4.30;;
14094;SDS011;18096;48.142;16.290;2022-12-07T06:18:34;6.85;;;4.90;;
14094;SDS011;18096;48.142;16.290;2022-12-07T06:21:00;7.70;;;4.30;;
14094;SDS011;18096;48.142;16.290;2022-12-07T06:23:26;5.10;;;4.15;;
14094;SDS011;18096;48.142;16.290;2022-12-07T06:25:51;4.55;;;3.92;;
14094;SDS011;18096;48.142;16.290;2022-12-07T06:28:17;4.50;;;4.10;;
14094;SDS011;18096;48.142;16.290;2022-12-07T06:30:42;5.13;;;4.13;;
14094;SDS011;18096;48.142;16.290;2022-12-07T06:33:08;5.70;;;4.10;;
14094;SDS011;18096;48.142;16.290;2022-12-07T06:35:34;7.10;;;4.27;;
14094;SDS011;18096;48.142;16.290;2022-12-07T06:37:59;5.18;;;4.68;;
14094;SDS011;18096;48.142;16.290;2022-12-07T06:40:25;5.20;;;4.70;;
14094;SDS011;18096;48.142;16.290;2022-12-07T06:42:51;6.70;;;4.73;;
14094;SDS011;18096;48.142;16.290;2022-12-07T06:45:17;4.43;;;3.83;;
14094;SDS011;18096;48.142;16.290;2022-12-07T06:47:42;4.90;;;3.90;;
14094;SDS011;18096;48.142;16.290;2022-12-07T06:50:08;7.05;;;4.65;;
14094;SDS011;18096;48.142;16.290;2022-12-07T06:52:34;7.18;;;4.25;;
14094;SDS011;18096;48.142;16.290;2022-12-07T06:55:00;8.15;;;3.95;;
14094;SDS011;18096;48.142;16.290;2022-12-07T06:57:25;5.23;;;4.73;;
14094;SDS011;18096;48.142;16.290;2022-12-07T06:59:51;4.37;;;3.97;;
14094;SDS011;18096;48.142;16.290;2022-12-07T07:02:17;3.77;;;3.57;;
14094;SDS011;18096;48.142;16.290;2022-12-07T07:04:43;4.30;;;3.80;;
14094;SDS011;18096;48.142;16.290;2022-12-07T07:07:08;5.10;;;4.10;;
14094;SDS011;18096;48.142;16.290;2022-12-07T07:09:34;5.93;;;4.18;;
14094;SDS011;18096;48.142;16.290;2022-12-07T07:12:00;5.20;;;4.10;;
14094;SDS011;18096;48.142;16.290;2022-12-07T07:14:26;4.53;;;4.13;;
14094;SDS011;18096;48.142;16.290;2022-12-07T07:16:51;4.28;;;3.05;;
14094;SDS011;18096;48.142;16.290;2022-12-07T07:19:17;4.93;;;4.50;;
14094;SDS011;18096;48.142;16.290;2022-12-07T07:21:43;4.38;;;3.88;;
14094;SDS011;18096;48.142;16.290;2022-12-07T07:24:09;6.80;;;4.20;;
14094;SDS011;18096;48.142;16.290;2022-12-07T07:26:34;8.80;;;3.67;;
14094;SDS011;18096;48.142;16.290;2022-12-07T07:29:00;3.97;;;3.60;;
14094;SDS011;18096;48.142;16.290;2022-12-07T07:31:25;5.23;;;3.23;;
14094;SDS011;18096;48.142;16.290;2022-12-07T07:33:51;4.43;;;3.53;;
14094;SDS011;18096;48.142;16.290;2022-12-07T07:36:17;4.72;;;4.00;;
14094;SDS011;18096;48.142;16.290;2022-12-07T07:38:43;5.78;;;3.78;;
14094;SDS011;18096;48.142;16.290;2022-12-07T07:41:08;4.38;;;3.65;;
14094;SDS011;18096;48.142;16.290;2022-12-07T07:43:34;5.43;;;3.77;;
14094;SDS011;18096;48.142;16.290;2022-12-07T07:46:00;4.10;;;3.20;;
14094;SDS011;18096;48.142;16.290;2022-12-07T07:48:25;3.92;;;3.63;;
14094;SDS011;18096;48.142;16.290;2022-12-07T07:50:51;3.80;;;3.50;;
14094;SDS011;18096;48.142;16.290;2022-12-07T07:53:17;6.23;;;4.00;;
14094;SDS011;18096;48.142;16.290;2022-12-07T07:55:49;4.18;;;3.40;;
14094;SDS011;18096;48.142;16.290;2022-12-07T07:58:18;3.30;;;3.05;;
14094;SDS011;18096;48.142;16.290;2022-12-07T08:00:44;3.35;;;3.15;;
14094;SDS011;18096;48.142;16.290;2022-12-07T08:03:10;4.10;;;3.70;;
14094;SDS011;18096;48.142;16.290;2022-12-07T08:05:36;6.80;;;3.60;;
14094;SDS011;18096;48.142;16.290;2022-12-07T08:08:02;4.22;;;3.83;;
14094;SDS011;18096;48.142;16.290;2022-12-07T08:10:29;5.60;;;4.03;;
14094;SDS011;18096;48.142;16.290;2022-12-07T08:12:57;7.68;;;4.10;;
14094;SDS011;18096;48.142;16.290;2022-12-07T08:15:43;3.60;;;3.30;;
14094;SDS011;18096;48.142;16.290;2022-12-07T08:18:10;3.10;;;2.90;;
14094;SDS011;18096;48.142;16.290;2022-12-07T08:20:37;3.47;;;3.17;;
14094;SDS011;18096;48.142;16.290;2022-12-07T08:23:04;3.00;;;2.80;;
14094;SDS011;18096;48.142;16.290;2022-12-07T08:25:30;5.20;;;3.10;;
14094;SDS011;18096;48.142;16.290;2022-12-07T08:27:57;3.42;;;2.97;;
14094;SDS011;18096;48.142;16.290;2022-12-07T08:30:22;3.40;;;3.10;;
14094;SDS011;18096;48.142;16.290;2022-12-07T08:32:48;3.28;;;3.08;;
14094;SDS011;18096;48.142;16.290;2022-12-07T08:35:14;3.28;;;3.08;;
14094;SDS011;18096;48.142;16.290;2022-12-07T08:37:40;2.65;;;2.53;;
14094;SDS011;18096;48.142;16.290;2022-12-07T08:40:07;3.00;;;2.80;;
14094;SDS011;18096;48.142;16.290;2022-12-07T08:42:34;3.33;;;2.40;;
14094;SDS011;18096;48.142;16.290;2022-12-07T08:45:06;3.70;;;2.78;;
14094;SDS011;18096;48.142;16.290;2022-12-07T08:47:34;2.80;;;2.60;;
14094;SDS011;18096;48.142;16.290;2022-12-07T08:50:02;4.25;;;2.72;;
14094;SDS011;18096;48.142;16.290;2022-12-07T08:52:30;6.60;;;3.50;;
14094;SDS011;18096;48.142;16.290;2022-12-07T08:54:57;2.40;;;2.30;;
14094;SDS011;18096;48.142;16.290;2022-12-07T08:57:24;2.40;;;2.20;;
14094;SDS011;18096;48.142;16.290;2022-12-07T08:59:52;2.88;;;2.63;;
14094;SDS011;18096;48.142;16.290;2022-12-07T09:02:17;2.90;;;2.60;;
14094;SDS011;18096;48.142;16.290;2022-12-07T09:04:43;2.70;;;2.60;;
14094;SDS011;18096;48.142;16.290;2022-12-07T09:07:09;3.30;;;2.27;;
14094;SDS011;18096;48.142;16.290;2022-12-07T09:09:34;2.75;;;2.55;;
14094;SDS011;18096;48.142;16.290;2022-12-07T09:12:00;2.73;;;2.53;;
14094;SDS011;18096;48.142;16.290;2022-12-07T09:14:26;3.13;;;2.40;;
14094;SDS011;18096;48.142;16.290;2022-12-07T09:16:51;2.88;;;2.67;;
14094;SDS011;18096;48.142;16.290;2022-12-07T09:19:17;3.22;;;2.78;;
14094;SDS011;18096;48.142;16.290;2022-12-07T09:21:43;6.07;;;3.47;;
14094;SDS011;18096;48.142;16.290;2022-12-07T09:24:08;3.20;;;2.90;;
14094;SDS011;18096;48.142;16.290;2022-12-07T09:26:34;3.30;;;3.10;;
14094;SDS011;18096;48.142;16.290;2022-12-07T09:29:01;2.90;;;2.70;;
14094;SDS011;18096;48.142;16.290;2022-12-07T09:31:27;4.53;;;3.40;;
14094;SDS011;18096;48.142;16.290;2022-12-07T09:33:54;3.40;;;3.10;;
14094;SDS011;18096;48.142;16.290;2022-12-07T09:36:24;3.80;;;3.50;;
14094;SDS011;18096;48.142;16.290;2022-12-07T09:38:50;4.10;;;3.70;;
14094;SDS011;18096;48.142;16.290;2022-12-07T09:41:16;4.68;;;4.00;;
14094;SDS011;18096;48.142;16.290;2022-12-07T09:43:42;3.85;;;3.45;;
14094;SDS011;18096;48.142;16.290;2022-12-07T09:46:08;4.35;;;3.92;;
14094;SDS011;18096;48.142;16.290;2022-12-07T09:48:39;3.88;;;3.58;;
14094;SDS011;18096;48.142;16.290;2022-12-07T09:51:14;4.18;;;3.67;;
14094;SDS011;18096;48.142;16.290;2022-12-07T09:53:45;7.00;;;4.13;;
14094;SDS011;18096;48.142;16.290;2022-12-07T09:56:13;7.30;;;3.60;;
14094;SDS011;18096;48.142;16.290;2022-12-07T09:58:39;4.45;;;4.05;;
14094;SDS011;18096;48.142;16.290;2022-12-07T10:03:34;5.25;;;3.75;;
14094;SDS011;18096;48.142;16.290;2022-12-07T10:06:03;3.95;;;3.60;;
14094;SDS011;18096;48.142;16.290;2022-12-07T10:08:30;3.75;;;3.00;;
14094;SDS011;18096;48.142;16.290;2022-12-07T10:10:56;3.83;;;3.53;;
14094;SDS011;18096;48.142;16.290;2022-12-07T10:13:34;5.60;;;3.03;;
14094;SDS011;18096;48.142;16.290;2022-12-07T10:18:49;5.75;;;4.18;;
14094;SDS011;18096;48.142;16.290;2022-12-07T10:21:16;3.60;;;3.30;;
14094;SDS011;18096;48.142;16.290;2022-12-07T10:24:02;4.57;;;3.78;;
14094;SDS011;18096;48.142;16.290;2022-12-07T10:28:59;8.60;;;3.20;;
14094;SDS011;18096;48.142;16.290;2022-12-07T10:31:41;3.40;;;3.10;;
14094;SDS011;18096;48.142;16.290;2022-12-07T10:36:47;3.83;;;3.47;;
14094;SDS011;18096;48.142;16.290;2022-12-07T10:39:16;3.07;;;2.50;;
14094;SDS011;18096;48.142;16.290;2022-12-07T10:41:56;3.20;;;3.00;;
14094;SDS011;18096;48.142;16.290;2022-12-07T10:44:25;3.55;;;3.35;;
14094;SDS011;18096;48.142;16.290;2022-12-07T10:52:20;2.70;;;2.50;;
14094;SDS011;18096;48.142;16.290;2022-12-07T11:01:09;5.22;;;3.10;;
14094;SDS011;18096;48.142;16.290;2022-12-07T11:25:33;8.10;;;3.00;;
14094;SDS011;18096;48.142;16.290;2022-12-07T11:28:20;4.25;;;3.88;;
14094;SDS011;18096;48.142;16.290;2022-12-07T11:33:47;4.78;;;3.53;;
14094;SDS011;18096;48.142;16.290;2022-12-07T11:38:59;3.38;;;2.75;;
14094;SDS011;18096;48.142;16.290;2022-12-07T11:41:31;3.13;;;2.80;;
14094;SDS011;18096;48.142;16.290;2022-12-07T11:46:51;4.50;;;3.00;;
14094;SDS011;18096;48.142;16.290;2022-12-07T11:52:22;5.75;;;3.20;;
14094;SDS011;18096;48.142;16.290;2022-12-07T11:54:49;4.00;;;3.78;;
14094;SDS011;18096;48.142;16.290;2022-12-07T11:57:20;6.15;;;3.58;;
14094;SDS011;18096;48.142;16.290;2022-12-07T12:00:00;4.60;;;4.20;;
14094;SDS011;18096;48.142;16.290;2022-12-07T12:02:33;3.65;;;3.42;;
14094;SDS011;18096;48.142;16.290;2022-12-07T12:05:23;4.13;;;3.70;;
14094;SDS011;18096;48.142;16.290;2022-12-07T12:21:54;3.80;;;3.20;;
14094;SDS011;18096;48.142;16.290;2022-12-07T12:24:23;3.78;;;3.45;;
14094;SDS011;18096;48.142;16.290;2022-12-07T12:27:01;3.92;;;3.53;;
14094;SDS011;18096;48.142;16.290;2022-12-07T12:29:35;5.37;;;3.80;;
14094;SDS011;18096;48.142;16.290;2022-12-07T12:32:04;3.60;;;3.30;;
14094;SDS011;18096;48.142;16.290;2022-12-07T12:34:39;3.22;;;3.03;;
14094;SDS011;18096;48.142;16.290;2022-12-07T12:40:37;3.75;;;3.30;;
14094;SDS011;18096;48.142;16.290;2022-12-07T12:42:57;3.75;;;3.45;;
14094;SDS011;18096;48.142;16.290;2022-12-07T12:45:30;3.42;;;3.10;;
14094;SDS011;18096;48.142;16.290;2022-12-07T12:47:57;2.90;;;2.70;;
14094;SDS011;18096;48.142;16.290;2022-12-07T12:50:46;3.28;;;3.00;;
14094;SDS011;18096;48.142;16.290;2022-12-07T13:00:46;4.03;;;3.72;;
14094;SDS011;18096;48.142;16.290;2022-12-07T13:03:26;3.85;;;3.55;;
14094;SDS011;18096;48.142;16.290;2022-12-07T13:09:00;4.53;;;3.58;;
14094;SDS011;18096;48.142;16.290;2022-12-07T13:11:31;4.05;;;3.70;;
14094;SDS011;18096;48.142;16.290;2022-12-07T13:17:04;4.25;;;3.88;;
14094;SDS011;18096;48.142;16.290;2022-12-07T13:27:32;3.90;;;3.60;;
14094;SDS011;18096;48.142;16.290;2022-12-07T13:30:01;6.40;;;3.60;;
14094;SDS011;18096;48.142;16.290;2022-12-07T13:32:27;5.60;;;4.05;;
14094;SDS011;18096;48.142;16.290;2022-12-07T13:34:54;4.07;;;3.78;;
14094;SDS011;18096;48.142;16.290;2022-12-07T13:37:27;6.68;;;4.70;;
14094;SDS011;18096;48.142;16.290;2022-12-07T13:40:12;4.82;;;4.20;;
14094;SDS011;18096;48.142;16.290;2022-12-07T13:42:46;4.20;;;3.80;;
14094;SDS011;18096;48.142;16.290;2022-12-07T13:51:16;4.38;;;3.80;;
14094;SDS011;18096;48.142;16.290;2022-12-07T13:53:51;4.40;;;4.00;;
14094;SDS011;18096;48.142;16.290;2022-12-07T13:56:21;4.97;;;4.10;;
14094;SDS011;18096;48.142;16.290;2022-12-07T13:58:52;5.95;;;4.72;;
14094;SDS011;18096;48.142;16.290;2022-12-07T14:01:17;5.27;;;4.20;;
14094;SDS011;18096;48.142;16.290;2022-12-07T14:03:43;6.80;;;4.60;;
14094;SDS011;18096;48.142;16.290;2022-12-07T14:06:13;6.88;;;4.47;;
14094;SDS011;18096;48.142;16.290;2022-12-07T14:08:42;6.20;;;4.40;;
14094;SDS011;18096;48.142;16.290;2022-12-07T14:11:11;4.07;;;3.78;;
14094;SDS011;18096;48.142;16.290;2022-12-07T14:16:31;6.17;;;4.20;;
14094;SDS011;18096;48.142;16.290;2022-12-07T14:19:00;4.70;;;4.20;;
14094;SDS011;18096;48.142;16.290;2022-12-07T14:21:29;5.47;;;4.13;;
14094;SDS011;18096;48.142;16.290;2022-12-07T14:24:29;6.88;;;4.68;;
14094;SDS011;18096;48.142;16.290;2022-12-07T14:26:49;4.50;;;4.10;;
14094;SDS011;18096;48.142;16.290;2022-12-07T14:29:19;4.63;;;4.20;;
14094;SDS011;18096;48.142;16.290;2022-12-07T14:31:46;4.32;;;3.90;;
14094;SDS011;18096;48.142;16.290;2022-12-07T14:34:12;3.70;;;3.40;;
14094;SDS011;18096;48.142;16.290;2022-12-07T14:36:37;4.77;;;4.37;;
14094;SDS011;18096;48.142;16.290;2022-12-07T14:39:03;7.50;;;4.40;;
14094;SDS011;18096;48.142;16.290;2022-12-07T14:41:29;6.20;;;4.65;;
14094;SDS011;18096;48.142;16.290;2022-12-07T14:44:13;7.68;;;5.10;;
14094;SDS011;18096;48.142;16.290;2022-12-07T14:46:39;5.80;;;4.15;;
14094;SDS011;18096;48.142;16.290;2022-12-07T14:49:04;6.25;;;4.53;;
14094;SDS011;18096;48.142;16.290;2022-12-07T14:51:30;4.77;;;4.23;;
14094;SDS011;18096;48.142;16.290;2022-12-07T14:53:57;6.10;;;4.45;;
14094;SDS011;18096;48.142;16.290;2022-12-07T14:56:22;5.35;;;4.72;;
14094;SDS011;18096;48.142;16.290;2022-12-07T14:58:52;10.90;;;4.93;;
14094;SDS011;18096;48.142;16.290;2022-12-07T15:01:18;6.05;;;4.55;;
14094;SDS011;18096;48.142;16.290;2022-12-07T15:03:44;4.50;;;4.07;;
14094;SDS011;18096;48.142;16.290;2022-12-07T15:06:10;5.23;;;4.53;;
14094;SDS011;18096;48.142;16.290;2022-12-07T15:08:40;6.47;;;4.55;;
14094;SDS011;18096;48.142;16.290;2022-12-07T15:11:06;4.82;;;4.25;;
14094;SDS011;18096;48.142;16.290;2022-12-07T15:13:35;6.90;;;5.55;;
14094;SDS011;18096;48.142;16.290;2022-12-07T15:16:19;5.68;;;4.57;;
14094;SDS011;18096;48.142;16.290;2022-12-07T15:18:46;5.20;;;4.70;;
14094;SDS011;18096;48.142;16.290;2022-12-07T15:21:14;6.32;;;5.50;;
14094;SDS011;18096;48.142;16.290;2022-12-07T15:23:41;8.00;;;5.68;;
14094;SDS011;18096;48.142;16.290;2022-12-07T15:26:07;10.48;;;5.85;;
14094;SDS011;18096;48.142;16.290;2022-12-07T15:28:35;7.00;;;4.90;;
14094;SDS011;18096;48.142;16.290;2022-12-07T15:31:01;4.60;;;4.20;;
14094;SDS011;18096;48.142;16.290;2022-12-07T15:33:26;5.33;;;4.60;;
14094;SDS011;18096;48.142;16.290;2022-12-07T15:35:52;5.70;;;4.55;;
14094;SDS011;18096;48.142;16.290;2022-12-07T15:38:18;5.43;;;4.65;;
14094;SDS011;18096;48.142;16.290;2022-12-07T15:40:46;6.90;;;5.50;;
14094;SDS011;18096;48.142;16.290;2022-12-07T15:43:12;7.25;;;6.10;;
14094;SDS011;18096;48.142;16.290;2022-12-07T15:45:56;4.90;;;4.40;;
14094;SDS011;18096;48.142;16.290;2022-12-07T15:48:22;7.93;;;4.80;;
14094;SDS011;18096;48.142;16.290;2022-12-07T15:50:47;5.63;;;4.30;;
14094;SDS011;18096;48.142;16.290;2022-12-07T15:53:13;4.80;;;4.40;;
14094;SDS011;18096;48.142;16.290;2022-12-07T15:55:39;6.10;;;4.67;;
14094;SDS011;18096;48.142;16.290;2022-12-07T15:58:05;7.33;;;5.10;;
14094;SDS011;18096;48.142;16.290;2022-12-07T16:00:31;5.22;;;4.13;;
14094;SDS011;18096;48.142;16.290;2022-12-07T16:02:57;6.85;;;4.90;;
14094;SDS011;18096;48.142;16.290;2022-12-07T16:05:22;9.13;;;4.97;;
14094;SDS011;18096;48.142;16.290;2022-12-07T16:07:48;6.43;;;5.32;;
14094;SDS011;18096;48.142;16.290;2022-12-07T16:10:14;9.27;;;4.80;;
14094;SDS011;18096;48.142;16.290;2022-12-07T16:12:40;7.50;;;4.95;;
14094;SDS011;18096;48.142;16.290;2022-12-07T16:15:05;5.40;;;4.90;;
14094;SDS011;18096;48.142;16.290;2022-12-07T16:17:31;7.70;;;4.70;;
14094;SDS011;18096;48.142;16.290;2022-12-07T16:19:57;5.95;;;4.65;;
14094;SDS011;18096;48.142;16.290;2022-12-07T16:22:23;11.20;;;4.70;;
14094;SDS011;18096;48.142;16.290;2022-12-07T16:24:49;5.43;;;4.60;;
14094;SDS011;18096;48.142;16.290;2022-12-07T16:27:14;6.97;;;4.80;;
14094;SDS011;18096;48.142;16.290;2022-12-07T16:29:40;7.85;;;4.90;;
14094;SDS011;18096;48.142;16.290;2022-12-07T16:32:06;5.82;;;4.60;;
14094;SDS011;18096;48.142;16.290;2022-12-07T16:34:31;5.17;;;4.67;;
14094;SDS011;18096;48.142;16.290;2022-12-07T16:36:57;5.55;;;4.50;;
14094;SDS011;18096;48.142;16.290;2022-12-07T16:39:23;7.53;;;5.35;;
14094;SDS011;18096;48.142;16.290;2022-12-07T16:41:49;6.70;;;5.88;;
14094;SDS011;18096;48.142;16.290;2022-12-07T16:44:15;8.38;;;4.70;;
14094;SDS011;18096;48.142;16.290;2022-12-07T16:46:41;7.90;;;4.63;;
14094;SDS011;18096;48.142;16.290;2022-12-07T16:49:16;5.63;;;5.00;;
14094;SDS011;18096;48.142;16.290;2022-12-07T16:51:43;9.60;;;5.50;;
14094;SDS011;18096;48.142;16.290;2022-12-07T16:54:10;8.65;;;5.18;;
14094;SDS011;18096;48.142;16.290;2022-12-07T16:56:36;7.63;;;4.35;;
14094;SDS011;18096;48.142;16.290;2022-12-07T16:59:02;7.10;;;5.00;;
14094;SDS011;18096;48.142;16.290;2022-12-07T17:01:28;7.38;;;4.70;;